Flight Track Log - Related Links

Times and Time Zones

All times are in EDT time to prevent confusion due to time zone crossing. See the N560PA flight status page for this flight to view local times or setup timezone preferences in your user account.

Time Position Orientation Groundspeed Altitude Reporting Facility
EDT Latitude Longitude Course Direction KTS MPH feet Rate Location/Type
Sun 09:01:08 AM 39.3833 -77.4000 104° East 195 224 1,600  Level Potomac TRACON
Sun 09:02:03 AM 39.3667 -77.3167 104° East 244 281 3,300 2,348 Climbing Potomac TRACON
Sun 09:03:03 AM 39.4000 -77.2500 57° Northeast 249 287 6,100 3,000 Climbing Potomac TRACON
Sun 09:03:57 AM 39.3500 -77.2000 142° Southeast 224 258 9,000 2,579 Climbing Potomac TRACON
Sun 09:04:57 AM 39.3000 -77.1667 153° Southeast 243 280 11,000 2,263 Climbing Potomac TRACON
Sun 09:05:51 AM 39.2333 -77.1500 169° South 250 288 13,300 2,421 Climbing Potomac TRACON
Sun 09:06:51 AM 39.1833 -77.2000 218° Southwest 250 288 15,600 2,000 Climbing Potomac TRACON
Sun 09:07:57 AM 39.1167 -77.2667 218° Southwest 269 310 17,500 1,741 Climbing Potomac TRACON
Sun 09:10:04 AM 38.9714 -77.3539 205° Southwest 283 326 21,200 1,751 Climbing Washington Center
Sun 09:11:02 AM 38.8981 -77.3839 198° South 283 326 22,900 966 Climbing Washington Center
Sun 09:12:02 AM 38.8267 -77.4089 195° South 288 331 23,100 738 Climbing Washington Center
Sun 09:13:04 AM 38.7428 -77.4414 197° South 304 350 24,400 1,279 Climbing Washington Center
Sun 09:14:04 AM 38.6589 -77.4714 196° South 317 365 25,700 1,271 Climbing Washington Center
Sun 09:15:02 AM 38.5750 -77.5011 195° South 317 365 26,900 650 Climbing Washington Center
Sun 09:16:04 AM 38.4892 -77.5361 198° South 322 371 27,000 744 Climbing Washington Center
Sun 09:17:03 AM 38.3989 -77.5706 197° South 333 383 28,400 1,462 Climbing Washington Center
Sun 09:18:03 AM 38.3347 -77.6564 226° Southwest 327 376 29,900 1,525 Climbing Washington Center
Sun 09:19:01 AM 38.2792 -77.7447 231° Southwest 319 367 31,400 1,200 Climbing Washington Center
Sun 09:20:03 AM 38.2253 -77.8306 231° Southwest 319 367 32,300 885 Climbing Washington Center
Sun 09:21:03 AM 38.1694 -77.9186 231° Southwest 324 373 33,200 992 Climbing Washington Center
Sun 09:22:04 AM 38.1136 -78.0039 230° Southwest 324 373 34,300 1,041 Climbing Washington Center
Sun 09:23:04 AM 38.0575 -78.0892 230° Southwest 324 373 35,300 864 Climbing Washington Center
Sun 09:24:02 AM 37.9975 -78.1742 228° Southwest 312 359 36,000 350 Climbing Washington Center
Sun 09:25:04 AM 37.9250 -78.2453 218° Southwest 313 360 36,000  Level Washington Center
Sun 09:26:02 AM 37.8483 -78.3136 215° Southwest 331 381 36,000  Level Washington Center
Sun 09:27:02 AM 37.7672 -78.3894 216° Southwest 352 405 36,000  Level Washington Center
Sun 09:28:03 AM 37.6886 -78.4575 214° Southwest 370 426 36,000 99 Level Washington Center
Sun 09:29:03 AM 37.6056 -78.5278 214° Southwest 375 432 36,200 595 Climbing Washington Center
Sun 09:30:04 AM 37.5203 -78.5978 213° Southwest 375 432 37,200 1,041 Climbing Washington Center
Sun 09:31:04 AM 37.4436 -78.6628 214° Southwest 363 418 38,300 1,169 Climbing Washington Center
Sun 09:32:02 AM 37.3606 -78.7325 214° Southwest 340 391 39,500 1,100 Climbing Washington Center
Sun 09:33:04 AM 37.2900 -78.7897 213° Southwest 329 379 40,500 689 Climbing Washington Center
Sun 09:34:04 AM 37.2217 -78.8494 215° Southwest 317 365 40,900 256 Climbing Washington Center
Sun 09:35:01 AM 37.1492 -78.9089 213° Southwest 312 359 41,000 51 Climbing Washington Center
Sun 09:36:02 AM 37.0831 -78.9633 213° Southwest 312 359 41,000  Level Washington Center
Sun 09:37:04 AM 37.0081 -79.0278 214° Southwest 318 366 41,000  Level Washington Center
Sun 09:38:04 AM 36.9292 -79.0917 213° Southwest 329 379 41,000  Level Washington Center
Sun 09:39:02 AM 36.8500 -79.1556 213° Southwest 341 392 41,000  Level Washington Center
Sun 09:40:02 AM 36.7622 -79.2319 215° Southwest 348 400 41,000  Level Washington Center
Sun 09:41:03 AM 36.6808 -79.2981 213° Southwest 353 406 41,000  Level Washington Center
Sun 09:42:04 AM 36.5975 -79.3639 212° Southwest 358 412 41,000  Level Washington Center
Sun 09:43:02 AM 36.5158 -79.4325 214° Southwest 358 412 41,000  Level Washington Center
Sun 09:44:03 AM 36.4322 -79.5006 213° Southwest 358 412 41,000  Level Washington Center
Sun 09:46:06 AM 36.2589 -79.6383 213° Southwest 359 413 41,000  Level Atlanta Center
Sun 09:47:06 AM 36.1778 -79.7069 214° Southwest 359 413 41,000  Level Atlanta Center
Sun 09:48:06 AM 36.0947 -79.7706 212° Southwest 359 413 41,000  Level Atlanta Center
Sun 09:49:06 AM 36.0197 -79.8336 214° Southwest 359 413 41,000  Level Atlanta Center
Sun 09:50:06 AM 35.9364 -79.9019 214° Southwest 359 413 41,000  Level Atlanta Center
Sun 09:51:06 AM 35.8550 -79.9650 212° Southwest 359 413 41,000  Level Atlanta Center
Sun 09:52:06 AM 35.7717 -80.0333 214° Southwest 359 413 41,000  Level Atlanta Center
Sun 09:53:06 AM 35.6822 -80.1042 213° Southwest 359 413 41,000  Level Atlanta Center
Sun 09:54:06 AM 35.5969 -80.1719 213° Southwest 367 422 41,000  Level Atlanta Center
Sun 09:55:06 AM 35.5236 -80.2342 215° Southwest 367 422 41,000  Level Atlanta Center
Sun 09:56:06 AM 35.4356 -80.2842 205° Southwest 362 417 41,000  Level Atlanta Center
Sun 09:57:06 AM 35.3450 -80.3289 202° Southwest 357 411 41,000  Level Atlanta Center
Sun 09:59:24 AM 35.1225 -80.4386 202° Southwest 348 400 41,000  Level Jacksonville Center
Sun 10:00:24 AM 35.0336 -80.4817 202° Southwest 349 402 41,000  Level Jacksonville Center
Sun 10:01:24 AM 34.9428 -80.5272 202° Southwest 356 410 41,000  Level Jacksonville Center
Sun 10:02:24 AM 34.8497 -80.5728 202° Southwest 356 410 41,000  Level Jacksonville Center
Sun 10:03:24 AM 34.7672 -80.6231 207° Southwest 343 395 41,000  Level Jacksonville Center
Sun 10:04:24 AM 34.6764 -80.6658 201° Southwest 343 395 41,000  Level Jacksonville Center
Sun 10:05:24 AM 34.5853 -80.7086 201° Southwest 357 411 41,000  Level Jacksonville Center
Sun 10:06:24 AM 34.4922 -80.7564 203° Southwest 372 428 41,000  Level Jacksonville Center
Sun 10:07:24 AM 34.3972 -80.8089 205° Southwest 366 421 41,000  Level Jacksonville Center
Sun 10:08:24 AM 34.3081 -80.8489 200° South 368 423 41,000  Level Jacksonville Center
Sun 10:09:24 AM 34.2086 -80.8989 203° Southwest 362 417 41,000  Level Jacksonville Center
Sun 10:10:24 AM 34.1178 -80.9436 202° Southwest 362 417 41,000  Level Jacksonville Center
Sun 10:11:24 AM 34.0225 -80.9908 202° Southwest 362 417 41,000  Level Jacksonville Center
Sun 10:12:24 AM 33.9311 -81.0328 201° Southwest 367 422 41,000  Level Jacksonville Center
Sun 10:13:24 AM 33.8358 -81.0772 201° Southwest 373 429 41,000  Level Jacksonville Center
Sun 10:14:24 AM 33.7406 -81.1292 204° Southwest 373 429 41,000  Level Jacksonville Center
Sun 10:15:24 AM 33.6431 -81.1761 202° Southwest 373 429 41,000  Level Jacksonville Center
Sun 10:16:24 AM 33.5500 -81.2203 202° Southwest 373 429 41,000  Level Jacksonville Center
Sun 10:17:24 AM 33.4544 -81.2669 202° Southwest 373 429 41,000  Level Jacksonville Center
Sun 10:18:24 AM 33.3592 -81.3158 203° Southwest 373 429 41,000  Level Jacksonville Center
Sun 10:19:24 AM 33.2636 -81.3597 201° Southwest 373 429 41,000  Level Jacksonville Center
Sun 10:20:24 AM 33.1681 -81.4036 201° Southwest 373 429 41,000  Level Jacksonville Center
Sun 10:21:24 AM 33.0728 -81.4497 202° Southwest 373 429 41,000  Level Jacksonville Center
Sun 10:22:24 AM 32.9792 -81.4958 202° Southwest 373 429 41,000  Level Jacksonville Center
Sun 10:23:24 AM 32.8836 -81.5394 201° Southwest 373 429 41,000  Level Jacksonville Center
Sun 10:24:24 AM 32.7903 -81.5853 202° Southwest 373 429 41,000  Level Jacksonville Center
Sun 10:25:24 AM 32.6947 -81.6286 201° Southwest 373 429 41,000  Level Jacksonville Center
Sun 10:26:24 AM 32.5992 -81.6769 203° Southwest 373 429 41,000  Level Jacksonville Center
Sun 10:27:24 AM 32.5078 -81.7200 202° Southwest 373 429 41,000  Level Jacksonville Center
Sun 10:28:24 AM 32.4078 -81.7533 196° South 373 429 41,000  Level Jacksonville Center
Sun 10:29:24 AM 32.3036 -81.7694 187° South 371 427 41,000 -150 Level Jacksonville Center
Sun 10:30:24 AM 32.2117 -81.7853 188° South 371 427 40,700 -500 Descending Jacksonville Center
Sun 10:31:24 AM 32.0931 -81.8061 188° South 386 444 40,000 -350 Descending Jacksonville Center
Sun 10:32:24 AM 31.9867 -81.8272 190° South 386 444 40,000  Level Jacksonville Center
Sun 10:33:24 AM 31.8803 -81.8431 187° South 386 444 40,000  Level Jacksonville Center
Sun 10:34:24 AM 31.7739 -81.8614 188° South 386 444 40,000  Level Jacksonville Center
Sun 10:35:24 AM 31.6822 -81.8794 190° South 386 444 40,000  Level Jacksonville Center
Sun 10:36:24 AM 31.5656 -81.8978 188° South 391 450 40,000  Level Jacksonville Center
Sun 10:37:24 AM 31.4633 -81.9158 189° South 385 443 40,000  Level Jacksonville Center
Sun 10:38:24 AM 31.3694 -81.9314 188° South 384 442 40,000  Level Jacksonville Center
Sun 10:39:24 AM 31.2569 -81.9519 189° South 384 442 40,000  Level Jacksonville Center
Sun 10:40:24 AM 31.1506 -81.9725 189° South 391 450 40,000  Level Jacksonville Center
Sun 10:41:24 AM 31.0442 -81.9906 188° South 391 450 40,000  Level Jacksonville Center
Sun 10:42:24 AM 30.9400 -82.0086 188° South 391 450 40,000  Level Jacksonville Center
Sun 10:43:24 AM 30.8356 -82.0239 187° South 391 450 40,000  Level Jacksonville Center
Sun 10:44:24 AM 30.7292 -82.0442 189° South 391 450 40,000  Level Jacksonville Center
Sun 10:45:24 AM 30.6250 -82.0622 188° South 386 444 40,000  Level Jacksonville Center
Sun 10:46:24 AM 30.5269 -82.0703 184° South 391 450 40,000  Level Jacksonville Center
Sun 10:47:24 AM 30.4228 -82.0903 189° South 385 443 40,000  Level Jacksonville Center
Sun 10:48:24 AM 30.3164 -82.1081 188° South 385 443 40,000  Level Jacksonville Center
Sun 10:49:24 AM 30.2078 -82.1258 188° South 391 450 40,000  Level Jacksonville Center
Sun 10:50:24 AM 30.0992 -82.1147 175° South 386 444 40,000  Level Jacksonville Center
Sun 10:51:24 AM 29.9883 -82.0964 172° South 392 451 40,000  Level Jacksonville Center
Sun 10:52:24 AM 29.8819 -82.0758 170° South 392 451 40,000 -400 Level Jacksonville Center
Sun 10:53:24 AM 29.7711 -82.0528 170° South 397 457 39,200 -1,100 Descending Jacksonville Center
Sun 10:54:24 AM 29.6561 -82.0297 170° South 405 466 37,800 -1,400 Descending Jacksonville Center
Sun 10:55:24 AM 29.5431 -82.0044 169° South 411 473 36,400 -1,350 Descending Jacksonville Center
Sun 10:56:24 AM 29.4261 -81.9842 171° South 416 479 35,100 -714 Descending Jacksonville Center
Sun 10:58:29 AM 29.1808 -81.9306 169° South 428 493 34,200 -746 Descending Miami Center
Sun 10:59:29 AM 29.0669 -81.9086 170° South 428 493 32,800 -1,400 Descending Miami Center
Sun 11:00:29 AM 28.9508 -81.8867 171° South 428 493 31,400 -1,400 Descending Miami Center
Sun 11:01:29 AM 28.8369 -81.8650 171° South 423 487 30,000 -1,450 Descending Miami Center
Sun 11:02:29 AM 28.7189 -81.8453 172° South 423 487 28,500 -1,400 Descending Miami Center
Sun 11:03:29 AM 28.6008 -81.8189 169° South 428 493 27,200 -750 Descending Miami Center
Sun 11:04:29 AM 28.4892 -81.7928 168° South 422 486 27,000 -650 Descending Miami Center
Sun 11:05:29 AM 28.3756 -81.7594 166° South 422 486 25,900 -1,150 Descending Miami Center
Sun 11:06:29 AM 28.2639 -81.7333 168° South 422 486 24,700 -950 Descending Miami Center
Sun 11:07:29 AM 28.1583 -81.7053 167° South 409 471 24,000 -800 Descending Miami Center
Sun 11:08:29 AM 28.0569 -81.6819 169° South 399 459 23,100 -950 Descending Miami Center
Sun 11:09:29 AM 27.9533 -81.6589 169° South 388 447 22,100 -1,000 Descending Miami Center
Sun 11:10:29 AM 27.8500 -81.6333 168° South 388 447 21,100 -1,200 Descending Miami Center
Sun 11:11:29 AM 27.7525 -81.6106 168° South 376 433 19,700 -1,450 Descending Miami Center
Sun 11:12:29 AM 27.6572 -81.5853 167° South 360 414 18,200 -1,400 Descending Miami Center
Sun 11:13:29 AM 27.5600 -81.5625 168° South 360 414 16,900 -1,400 Descending Miami Center
Sun 11:14:29 AM 27.4619 -81.5611 179° South 355 409 15,400 -1,500 Descending Miami Center
Sun 11:15:29 AM 27.3700 -81.5667 183° South 343 395 13,900 -1,500 Descending Miami Center
Sun 11:16:29 AM 27.2758 -81.5719 183° South 343 395 12,400 -1,500 Descending Miami Center
Sun 11:17:29 AM 27.1839 -81.5778 183° South 343 395 10,900 -1,200 Descending Miami Center
Sun 11:18:29 AM 27.0939 -81.5856 184° South 337 388 10,000 -450 Descending Miami Center
Sun 11:19:29 AM 27.0064 -81.5797 177° South 318 366 10,000  Level Miami Center
Sun 11:20:29 AM 26.9428 -81.5400 151° Southeast 277 319 10,000  Level Miami Center
Sun 11:21:29 AM 26.8617 -81.5344 177° South 289 333 10,000 -350 Level Miami Center
Sun 11:22:29 AM 26.7658 -81.5258 175° South 310 357 9,300 -950 Descending Miami Center
Sun 11:23:29 AM 26.6892 -81.5136 172° South 299 344 8,100 -1,050 Descending Miami Center
Sun 11:24:29 AM 26.6225 -81.5039 173° South 276 318 7,200 -1,650 Descending Miami Center
Sun 11:25:29 AM 26.5475 -81.4964 175° South 262 302 4,800 -2,100 Descending Miami Center
Sun 11:26:29 AM 26.4758 -81.5236 199° South 249 287 3,000 -1,800 Descending Miami Center
Sun 11:28:00 AM 26.3680 -81.6329 197° South  Level FlightAware Approximate
Sun 11:35:00 AM 26.1500 -81.7667 204° Southwest  Level FlightAware Approximate
Sun 11:36:00 AM 26.1524 -81.7756 204° Southwest  Level Estimated
Sun 11:37:00 AM 26.1524 -81.7756 204° Southwest  Level Estimated
Sun 11:38:00 AM 26.1524 -81.7756 204° Southwest  Level Estimated
Sun 11:39:00 AM 26.1524 -81.7756 204° Southwest  Level Estimated
Sun 11:40:00 AM 26.1524 -81.7756 204° Southwest  Level Estimated

Login

Don't have an account? Register now (free) for customized features, flight alerts, and more!